createdAt,value
2022-08-27T00:02:19.567Z,16.60
2022-08-27T00:04:45.917Z,16.60
2022-08-27T00:07:12.560Z,16.60
2022-08-27T00:09:39.238Z,16.60
2022-08-27T00:12:05.915Z,16.50
2022-08-27T00:14:33.326Z,16.60
2022-08-27T00:16:59.640Z,16.60
2022-08-27T00:19:25.923Z,16.60
2022-08-27T00:21:52.251Z,16.70
2022-08-27T00:24:18.523Z,16.60
2022-08-27T00:26:44.925Z,16.70
2022-08-27T00:29:11.233Z,16.60
2022-08-27T00:31:37.591Z,16.60
2022-08-27T00:34:06.022Z,16.50
2022-08-27T00:36:34.316Z,16.60
2022-08-27T00:39:00.601Z,16.50
2022-08-27T00:41:27.000Z,16.40
2022-08-27T00:43:58.651Z,16.40
2022-08-27T00:46:38.108Z,16.40
2022-08-27T00:52:40.521Z,16.50
2022-08-27T00:55:14.174Z,16.60
2022-08-27T00:57:41.933Z,16.60
2022-08-27T01:00:14.310Z,16.70
2022-08-27T01:02:42.691Z,16.60
2022-08-27T01:05:11.436Z,16.60
2022-08-27T01:07:40.847Z,16.60
2022-08-27T01:10:13.067Z,16.40
2022-08-27T01:12:39.830Z,16.50
2022-08-27T01:15:10.033Z,16.40
2022-08-27T01:17:40.504Z,16.20
2022-08-27T01:20:11.132Z,16.20
2022-08-27T01:22:55.415Z,16.30
2022-08-27T01:25:23.351Z,16.30
2022-08-27T01:27:49.808Z,16.20
2022-08-27T01:30:17.626Z,16.20
2022-08-27T01:32:44.798Z,16.20
2022-08-27T01:35:12.269Z,16.20
2022-08-27T01:37:39.281Z,16.10
2022-08-27T01:40:08.114Z,16.00
2022-08-27T01:42:49.636Z,16.00
2022-08-27T01:45:25.167Z,16.00
2022-08-27T01:47:51.480Z,15.90
2022-08-27T01:50:20.498Z,15.90
2022-08-27T01:52:46.844Z,15.90
2022-08-27T01:55:15.667Z,15.90
2022-08-27T01:57:42.700Z,15.90
2022-08-27T02:00:13.257Z,15.90
2022-08-27T02:02:39.902Z,15.90
2022-08-27T02:05:06.460Z,15.90
2022-08-27T02:07:32.767Z,16.00
2022-08-27T02:09:59.076Z,16.10
2022-08-27T02:12:25.394Z,16.10
2022-08-27T02:14:52.770Z,16.10
2022-08-27T02:17:19.119Z,16.10
2022-08-27T02:19:45.422Z,16.00
2022-08-27T02:22:12.315Z,15.90
2022-08-27T02:24:40.195Z,15.90
2022-08-27T02:27:07.348Z,15.80
2022-08-27T02:29:34.438Z,15.80
2022-08-27T02:32:01.400Z,16.00
2022-08-27T02:34:28.657Z,16.00
2022-08-27T02:36:54.941Z,15.80
2022-08-27T02:39:21.718Z,15.70
2022-08-27T02:41:48.014Z,15.70
2022-08-27T02:44:14.524Z,15.70
2022-08-27T02:46:41.054Z,15.60
2022-08-27T02:49:08.821Z,15.60
2022-08-27T02:51:35.922Z,15.50
2022-08-27T02:54:02.255Z,15.60
2022-08-27T02:56:30.200Z,15.80
2022-08-27T02:58:56.535Z,15.70
2022-08-27T03:01:22.992Z,15.70
2022-08-27T03:03:49.357Z,15.70
2022-08-27T03:06:15.627Z,15.70
2022-08-27T03:08:52.218Z,15.60
2022-08-27T03:11:22.587Z,15.60
2022-08-27T03:13:49.035Z,15.50
2022-08-27T03:16:15.367Z,15.40
2022-08-27T03:18:41.703Z,15.40
2022-08-27T03:21:08.315Z,15.40
2022-08-27T03:23:34.747Z,15.40
2022-08-27T03:26:03.782Z,15.40
2022-08-27T03:28:33.197Z,15.40
2022-08-27T03:31:01.422Z,15.40
2022-08-27T03:33:30.024Z,15.30
2022-08-27T03:35:56.295Z,15.50
2022-08-27T03:38:22.675Z,15.50
2022-08-27T03:40:49.001Z,15.50
2022-08-27T03:43:16.571Z,15.60
2022-08-27T03:46:00.315Z,15.70
2022-08-27T03:48:28.685Z,15.60
2022-08-27T03:50:55.010Z,15.70
2022-08-27T03:53:22.230Z,15.70
2022-08-27T03:55:48.516Z,15.80
2022-08-27T03:58:15.286Z,15.90
2022-08-27T04:00:42.363Z,15.90
2022-08-27T04:03:13.662Z,15.90
2022-08-27T04:05:40.498Z,18.40
2022-08-27T04:08:09.959Z,16.10
2022-08-27T04:10:40.192Z,16.20
2022-08-27T04:13:07.651Z,16.40
2022-08-27T04:15:34.170Z,16.50
2022-08-27T04:18:01.773Z,16.60
2022-08-27T04:20:35.426Z,16.70
2022-08-27T04:23:02.299Z,16.70
2022-08-27T04:25:29.008Z,16.60
2022-08-27T04:27:55.329Z,16.50
2022-08-27T04:30:21.679Z,16.60
2022-08-27T04:32:48.034Z,16.70
2022-08-27T04:35:14.316Z,16.80
2022-08-27T04:37:40.685Z,16.80
2022-08-27T04:40:08.250Z,16.80
2022-08-27T04:42:34.744Z,16.80
2022-08-27T04:45:02.817Z,16.90
2022-08-27T04:47:29.220Z,17.00
2022-08-27T04:49:55.559Z,17.10
2022-08-27T04:52:23.986Z,17.30
2022-08-27T04:54:51.415Z,17.40
2022-08-27T04:57:17.750Z,17.60
2022-08-27T04:59:44.249Z,17.70
2022-08-27T05:02:14.620Z,17.80
2022-08-27T05:04:42.155Z,18.00
2022-08-27T05:07:09.520Z,18.20
2022-08-27T05:09:35.812Z,18.30
2022-08-27T05:12:02.605Z,18.30
2022-08-27T05:14:29.774Z,18.50
2022-08-27T05:16:57.815Z,18.70
2022-08-27T05:19:24.328Z,18.80
2022-08-27T05:21:52.615Z,18.80
2022-08-27T05:24:18.979Z,18.90
2022-08-27T05:26:45.430Z,19.10
2022-08-27T05:29:15.091Z,19.20
2022-08-27T05:31:41.512Z,19.30
2022-08-27T05:34:10.231Z,19.40
2022-08-27T05:36:48.029Z,19.60
2022-08-27T05:39:17.007Z,19.70
2022-08-27T05:41:43.326Z,19.80
2022-08-27T05:44:30.141Z,19.90
2022-08-27T05:47:06.968Z,20.20
2022-08-27T05:49:33.287Z,20.40
2022-08-27T05:51:59.625Z,20.60
2022-08-27T05:54:26.150Z,20.80
2022-08-27T05:56:52.812Z,20.90
2022-08-27T05:59:41.717Z,21.20
2022-08-27T06:02:11.000Z,21.50
2022-08-27T06:04:37.396Z,21.90
2022-08-27T06:07:03.905Z,21.80
2022-08-27T06:09:30.311Z,21.70
2022-08-27T06:11:57.506Z,22.20
2022-08-27T06:14:24.025Z,22.80
2022-08-27T06:16:50.427Z,23.20
2022-08-27T06:19:16.894Z,23.10
2022-08-27T06:21:43.186Z,23.10
2022-08-27T06:24:12.768Z,23.10
2022-08-27T06:26:39.984Z,24.20
2022-08-27T06:29:06.932Z,24.80
2022-08-27T06:31:35.109Z,25.30
2022-08-27T06:34:07.719Z,25.60
2022-08-27T06:36:36.180Z,26.00
2022-08-27T06:39:02.835Z,26.30
2022-08-27T06:41:29.135Z,26.00
2022-08-27T06:43:55.718Z,26.30
2022-08-27T06:46:22.936Z,26.70
2022-08-27T06:48:53.451Z,27.60
2022-08-27T06:51:25.601Z,28.40
2022-08-27T06:53:56.346Z,29.00
2022-08-27T06:56:22.769Z,29.20
2022-08-27T06:58:55.358Z,29.60
2022-08-27T07:01:24.897Z,30.20
2022-08-27T07:03:53.183Z,30.60
2022-08-27T07:06:19.483Z,30.80
2022-08-27T07:08:53.343Z,31.40
2022-08-27T07:11:20.248Z,31.40
2022-08-27T07:13:46.945Z,30.80
2022-08-27T07:16:18.508Z,31.40
2022-08-27T07:18:44.997Z,31.60
2022-08-27T07:21:11.628Z,32.00
2022-08-27T07:23:38.266Z,31.80
2022-08-27T07:26:11.980Z,32.40
2022-08-27T07:28:39.111Z,32.30
2022-08-27T07:31:08.728Z,32.40
2022-08-27T07:33:36.486Z,32.40
2022-08-27T07:36:04.150Z,32.90
2022-08-27T07:38:30.487Z,33.20
2022-08-27T07:40:56.866Z,32.90
2022-08-27T07:43:41.605Z,33.20
2022-08-27T07:46:08.137Z,33.50
2022-08-27T07:48:36.597Z,33.00
2022-08-27T07:51:04.842Z,32.60
2022-08-27T07:53:32.541Z,32.20
2022-08-27T07:56:06.094Z,33.20
2022-08-27T07:58:32.502Z,33.80
2022-08-27T08:00:59.141Z,33.50
2022-08-27T08:03:25.957Z,34.30
2022-08-27T08:05:52.830Z,34.10
2022-08-27T08:08:20.255Z,33.60
2022-08-27T08:10:47.895Z,32.90
2022-08-27T08:13:17.443Z,31.70
2022-08-27T08:15:44.587Z,30.40
2022-08-27T08:18:11.008Z,31.20
2022-08-27T08:20:57.225Z,30.90
2022-08-27T08:23:24.686Z,30.90
2022-08-27T08:25:50.994Z,32.10
2022-08-27T08:28:17.280Z,32.50
2022-08-27T08:30:43.791Z,33.10
2022-08-27T08:33:10.122Z,33.40
2022-08-27T08:35:40.960Z,33.30
2022-08-27T08:38:08.225Z,32.80
2022-08-27T08:40:49.833Z,31.70
2022-08-27T08:43:40.726Z,31.20
2022-08-27T08:46:21.357Z,30.70
2022-08-27T08:48:49.431Z,31.00
2022-08-27T08:51:39.913Z,30.80
2022-08-27T08:54:20.982Z,30.80
2022-08-27T08:56:59.156Z,31.70
2022-08-27T08:59:47.461Z,32.70
2022-08-27T09:02:18.387Z,33.40
2022-08-27T09:04:44.968Z,32.60
2022-08-27T09:07:32.703Z,31.80
2022-08-27T09:13:32.782Z,31.40
2022-08-27T09:16:01.757Z,29.80
2022-08-27T09:18:28.288Z,29.60
2022-08-27T09:21:09.803Z,28.90
2022-08-27T09:26:17.808Z,28.90
2022-08-27T09:29:02.619Z,28.80
2022-08-27T09:31:29.192Z,28.80
2022-08-27T09:33:57.209Z,28.60
2022-08-27T09:36:24.695Z,28.40
2022-08-27T09:38:58.037Z,28.50
2022-08-27T09:41:27.780Z,29.00
2022-08-27T09:44:07.950Z,29.80
2022-08-27T09:46:34.280Z,29.80
2022-08-27T09:49:13.840Z,29.80
2022-08-27T09:51:41.114Z,29.60
2022-08-27T09:54:07.853Z,29.20
2022-08-27T09:56:36.973Z,28.90
2022-08-27T09:59:49.432Z,28.70
2022-08-27T10:02:17.938Z,28.60
2022-08-27T10:04:51.069Z,28.60
2022-08-27T10:07:42.312Z,28.70
2022-08-27T10:10:55.461Z,29.90
2022-08-27T10:13:28.425Z,30.80
2022-08-27T10:19:45.588Z,31.90
2022-08-27T10:24:57.349Z,32.50
2022-08-27T10:28:07.258Z,32.00
2022-08-27T10:33:24.060Z,32.60
2022-08-27T10:36:05.014Z,33.00
2022-08-27T10:38:42.455Z,32.90
2022-08-27T10:41:34.245Z,32.80
2022-08-27T10:47:02.469Z,32.00
2022-08-27T10:54:38.916Z,32.60
2022-08-27T10:57:55.137Z,31.30
2022-08-27T11:00:27.813Z,31.70
2022-08-27T11:03:03.973Z,32.00
2022-08-27T11:05:36.334Z,31.30
2022-08-27T11:10:01.851Z,30.90
2022-08-27T11:12:36.978Z,31.00
2022-08-27T11:15:26.858Z,31.50
2022-08-27T11:18:05.534Z,31.70
2022-08-27T11:20:35.822Z,32.20
2022-08-27T11:23:11.779Z,32.10
2022-08-27T11:25:57.462Z,31.50
2022-08-27T11:28:41.471Z,31.20
2022-08-27T11:35:52.489Z,31.30
2022-08-27T11:39:04.268Z,31.20
2022-08-27T11:42:08.674Z,31.10
2022-08-27T11:44:40.623Z,30.80
2022-08-27T11:47:14.572Z,31.00
2022-08-27T11:49:55.585Z,31.70
2022-08-27T11:53:34.145Z,32.50
2022-08-27T11:56:38.202Z,32.90
2022-08-27T11:59:31.020Z,33.10
2022-08-27T12:02:09.485Z,32.80
2022-08-27T12:04:40.575Z,32.10
2022-08-27T12:07:44.498Z,31.60
2022-08-27T12:10:19.755Z,31.50
2022-08-27T12:13:00.584Z,31.20
2022-08-27T12:17:03.041Z,31.30
2022-08-27T12:23:09.192Z,31.10
2022-08-27T12:25:35.539Z,31.30
2022-08-27T12:28:04.341Z,30.80
2022-08-27T12:30:38.820Z,30.60
2022-08-27T12:34:00.952Z,30.20
2022-08-27T12:36:27.947Z,30.00
2022-08-27T12:38:56.706Z,30.00
2022-08-27T12:41:44.190Z,30.40
2022-08-27T12:44:14.277Z,31.20
2022-08-27T12:46:52.727Z,31.90
2022-08-27T12:49:39.096Z,32.30
2022-08-27T12:53:17.625Z,32.30
2022-08-27T12:56:34.868Z,32.30
2022-08-27T12:59:29.236Z,32.60
2022-08-27T13:04:34.941Z,32.40
2022-08-27T13:07:01.286Z,32.80
2022-08-27T13:09:32.121Z,32.80
2022-08-27T13:11:58.982Z,32.70
2022-08-27T13:14:26.883Z,32.70
2022-08-27T13:17:05.211Z,32.60
2022-08-27T13:19:41.321Z,32.60
2022-08-27T13:22:07.689Z,32.70
2022-08-27T13:24:35.956Z,32.60
2022-08-27T13:27:03.526Z,32.60
2022-08-27T13:29:29.845Z,32.60
2022-08-27T13:31:57.465Z,32.60
2022-08-27T13:34:27.339Z,32.40
2022-08-27T13:37:05.547Z,31.80
2022-08-27T13:39:36.705Z,31.40
2022-08-27T13:42:04.487Z,30.70
2022-08-27T13:44:40.138Z,29.90
2022-08-27T13:47:08.384Z,29.30
2022-08-27T13:49:39.741Z,28.90
2022-08-27T13:54:12.319Z,28.60
2022-08-27T13:57:03.245Z,28.50
2022-08-27T13:59:30.283Z,28.40
2022-08-27T14:02:24.132Z,28.30
2022-08-27T14:05:12.030Z,28.30
2022-08-27T14:07:52.508Z,28.40
2022-08-27T14:10:30.327Z,28.50
2022-08-27T14:13:43.694Z,28.50
2022-08-27T14:16:28.222Z,28.70
2022-08-27T14:19:33.431Z,28.90
2022-08-27T14:22:03.045Z,27.10
2022-08-27T14:24:29.377Z,29.00
2022-08-27T14:27:04.523Z,29.00
2022-08-27T14:29:30.836Z,29.00
2022-08-27T14:31:57.214Z,29.00
2022-08-27T14:34:23.679Z,29.00
2022-08-27T14:36:54.624Z,29.00
2022-08-27T14:39:24.372Z,29.00
2022-08-27T14:41:53.286Z,29.00
2022-08-27T14:44:21.368Z,29.00
2022-08-27T14:46:47.997Z,28.90
2022-08-27T14:49:16.112Z,28.70
2022-08-27T14:51:43.138Z,28.50
2022-08-27T14:54:09.675Z,28.40
2022-08-27T14:56:36.353Z,28.30
2022-08-27T14:59:07.394Z,28.10
2022-08-27T15:01:36.742Z,27.90
2022-08-27T15:04:04.237Z,27.80
2022-08-27T15:06:31.313Z,27.70
2022-08-27T15:08:59.084Z,27.60
2022-08-27T15:11:28.684Z,27.50
2022-08-27T15:13:56.020Z,27.50
2022-08-27T15:16:33.741Z,27.30
2022-08-27T15:19:01.240Z,27.20
2022-08-27T15:21:28.263Z,27.10
2022-08-27T15:23:59.260Z,27.00
2022-08-27T15:26:25.747Z,26.80
2022-08-27T15:28:53.479Z,26.70
2022-08-27T15:31:22.732Z,26.60
2022-08-27T15:33:49.150Z,26.50
2022-08-27T15:36:15.685Z,26.30
2022-08-27T15:38:42.073Z,26.30
2022-08-27T15:41:09.890Z,26.20
2022-08-27T15:43:37.263Z,26.10
2022-08-27T15:46:04.565Z,26.10
2022-08-27T15:48:31.496Z,26.00
2022-08-27T15:51:02.079Z,27.90
2022-08-27T15:53:29.191Z,26.00
2022-08-27T15:55:56.216Z,26.10
2022-08-27T15:58:22.583Z,26.10
2022-08-27T16:00:58.563Z,26.10
2022-08-27T16:03:35.397Z,26.10
2022-08-27T16:06:05.068Z,26.10
2022-08-27T16:08:32.230Z,26.10
2022-08-27T16:11:03.240Z,26.10
2022-08-27T16:13:30.173Z,26.10
2022-08-27T16:15:56.826Z,26.10
2022-08-27T16:18:30.483Z,26.00
2022-08-27T16:20:58.978Z,26.00
2022-08-27T16:23:25.556Z,26.00
2022-08-27T16:25:52.809Z,26.00
2022-08-27T16:28:19.138Z,25.90
2022-08-27T16:30:45.618Z,25.80
2022-08-27T16:33:13.691Z,25.70
2022-08-27T16:35:40.145Z,25.70
2022-08-27T16:38:06.500Z,25.60
2022-08-27T16:40:34.438Z,25.50
2022-08-27T16:43:00.875Z,25.50
2022-08-27T16:45:30.272Z,25.50
2022-08-27T16:48:15.165Z,25.50
2022-08-27T16:50:41.523Z,25.50
2022-08-27T16:53:12.516Z,25.50
2022-08-27T16:55:39.096Z,25.50
2022-08-27T16:58:22.557Z,25.50
2022-08-27T17:00:54.263Z,25.50
2022-08-27T17:03:21.215Z,25.40
2022-08-27T17:05:48.045Z,25.40
2022-08-27T17:08:19.022Z,25.20
2022-08-27T17:10:47.493Z,25.20
2022-08-27T17:13:14.933Z,25.10
2022-08-27T17:15:41.401Z,24.90
2022-08-27T17:18:07.838Z,24.80
2022-08-27T17:20:34.626Z,24.70
2022-08-27T17:23:01.168Z,24.50
2022-08-27T17:25:30.330Z,24.40
2022-08-27T17:28:00.224Z,24.20
2022-08-27T17:30:28.213Z,24.10
2022-08-27T17:32:54.640Z,24.00
2022-08-27T17:35:21.005Z,24.00
2022-08-27T17:37:48.237Z,23.90
2022-08-27T17:40:14.546Z,23.70
2022-08-27T17:42:40.910Z,23.60
2022-08-27T17:45:08.329Z,23.50
2022-08-27T17:47:35.689Z,23.30
2022-08-27T17:50:02.766Z,23.20
2022-08-27T17:52:34.799Z,23.00
2022-08-27T17:55:02.863Z,22.90
2022-08-27T17:57:40.922Z,22.80
2022-08-27T18:00:09.932Z,22.70
2022-08-27T18:02:42.820Z,22.70
2022-08-27T18:05:12.581Z,22.60
2022-08-27T18:07:45.871Z,22.50
2022-08-27T18:10:14.775Z,22.40
2022-08-27T18:12:42.004Z,22.30
2022-08-27T18:15:31.199Z,22.20
2022-08-27T18:18:01.783Z,22.10
2022-08-27T18:20:32.090Z,21.90
2022-08-27T18:23:11.231Z,21.80
2022-08-27T18:25:37.838Z,21.70
2022-08-27T18:28:11.549Z,21.70
2022-08-27T18:30:47.695Z,21.50
2022-08-27T18:33:16.141Z,21.40
2022-08-27T18:35:51.950Z,21.30
2022-08-27T18:38:20.576Z,21.20
2022-08-27T18:40:55.365Z,21.10
2022-08-27T18:43:32.455Z,21.10
2022-08-27T18:46:00.332Z,21.10
2022-08-27T18:48:30.945Z,20.90
2022-08-27T18:51:01.310Z,20.90
2022-08-27T18:53:30.508Z,20.80
2022-08-27T18:55:59.148Z,20.80
2022-08-27T18:58:28.723Z,20.90
2022-08-27T19:01:03.325Z,20.80
2022-08-27T19:03:33.594Z,20.80
2022-08-27T19:06:08.710Z,20.80
2022-08-27T19:08:45.216Z,20.70
2022-08-27T19:11:12.810Z,20.70
2022-08-27T19:13:40.019Z,20.60
2022-08-27T19:16:15.458Z,20.70
2022-08-27T19:19:00.838Z,20.70
2022-08-27T19:21:27.690Z,20.60
2022-08-27T19:23:59.121Z,20.50
2022-08-27T19:26:27.448Z,20.50
2022-08-27T19:28:56.976Z,20.40
2022-08-27T19:31:25.396Z,20.40
2022-08-27T19:33:53.013Z,20.30
2022-08-27T19:36:20.279Z,20.20
2022-08-27T19:38:53.809Z,20.10
2022-08-27T19:41:26.055Z,20.10
2022-08-27T19:43:54.954Z,20.00
2022-08-27T19:46:21.669Z,20.00
2022-08-27T19:48:55.048Z,20.00
2022-08-27T19:51:22.633Z,20.00
2022-08-27T19:53:58.419Z,20.00
2022-08-27T19:56:35.792Z,19.30
2022-08-27T19:59:20.362Z,19.90
2022-08-27T20:01:48.527Z,19.90
2022-08-27T20:04:16.638Z,19.80
2022-08-27T20:06:46.107Z,19.80
2022-08-27T20:09:15.909Z,19.90
2022-08-27T20:11:46.093Z,19.80
2022-08-27T20:14:13.065Z,19.90
2022-08-27T20:16:40.151Z,19.90
2022-08-27T20:19:06.839Z,19.90
2022-08-27T20:21:38.917Z,19.90
2022-08-27T20:24:15.601Z,19.90
2022-08-27T20:26:46.910Z,20.00
2022-08-27T20:29:32.628Z,19.90
2022-08-27T20:32:01.817Z,20.00
2022-08-27T20:34:32.167Z,20.00
2022-08-27T20:37:02.449Z,20.00
2022-08-27T20:39:32.959Z,20.00
2022-08-27T20:42:04.022Z,20.00
2022-08-27T20:44:32.889Z,20.00
2022-08-27T20:47:00.742Z,19.90
2022-08-27T20:49:30.377Z,19.90
2022-08-27T20:52:02.659Z,19.90
2022-08-27T20:54:34.052Z,18.90
2022-08-27T20:57:01.871Z,19.90
2022-08-27T20:59:49.606Z,19.80
2022-08-27T21:02:24.363Z,19.70
2022-08-27T21:04:51.307Z,19.60
2022-08-27T21:07:18.299Z,19.50
2022-08-27T21:09:55.695Z,19.50
2022-08-27T21:12:25.698Z,19.40
2022-08-27T21:14:55.657Z,19.40
2022-08-27T21:17:23.633Z,19.40
2022-08-27T21:19:50.391Z,20.20
2022-08-27T21:22:17.366Z,19.30
2022-08-27T21:24:45.825Z,19.30
2022-08-27T21:27:12.136Z,19.60
2022-08-27T21:29:38.749Z,19.70
2022-08-27T21:32:05.361Z,19.80
2022-08-27T21:34:31.687Z,19.90
2022-08-27T21:36:58.594Z,19.90
2022-08-27T21:39:24.848Z,19.90
2022-08-27T21:41:51.183Z,20.00
2022-08-27T21:44:18.638Z,20.10
2022-08-27T21:46:45.457Z,20.10
2022-08-27T21:49:11.846Z,20.20
2022-08-27T21:51:38.190Z,20.20
2022-08-27T21:54:06.467Z,20.20
2022-08-27T21:56:33.064Z,20.20
2022-08-27T21:58:59.567Z,20.30
2022-08-27T22:01:25.964Z,20.30
2022-08-27T22:03:52.728Z,20.30
2022-08-27T22:06:19.851Z,20.30
2022-08-27T22:08:46.184Z,20.30
2022-08-27T22:11:12.473Z,20.30
2022-08-27T22:13:38.865Z,20.30
2022-08-27T22:16:08.049Z,20.30
2022-08-27T22:18:35.658Z,20.30
2022-08-27T22:21:05.876Z,20.30
2022-08-27T22:23:32.555Z,20.30
2022-08-27T22:25:59.536Z,20.30
2022-08-27T22:28:25.862Z,20.30
2022-08-27T22:30:52.480Z,20.20
2022-08-27T22:33:20.712Z,20.20
2022-08-27T22:35:50.065Z,20.10
2022-08-27T22:38:16.383Z,20.10
2022-08-27T22:40:43.041Z,20.10
2022-08-27T22:43:11.814Z,20.10
2022-08-27T22:45:38.327Z,20.00
2022-08-27T22:48:04.738Z,20.00
2022-08-27T22:50:31.060Z,19.90
2022-08-27T22:52:57.512Z,19.80
2022-08-27T22:55:23.858Z,19.80
2022-08-27T22:57:54.112Z,19.80
2022-08-27T23:00:24.471Z,19.70
2022-08-27T23:02:50.821Z,19.70
2022-08-27T23:05:17.466Z,19.60
2022-08-27T23:07:44.181Z,19.60
2022-08-27T23:10:12.911Z,19.60
2022-08-27T23:12:39.272Z,19.60
2022-08-27T23:15:06.686Z,19.70
2022-08-27T23:17:33.216Z,19.50
2022-08-27T23:19:59.491Z,19.50
2022-08-27T23:22:25.766Z,19.60
2022-08-27T23:26:22.773Z,19.50
2022-08-27T23:28:49.062Z,19.50
2022-08-27T23:31:15.457Z,19.40
2022-08-27T23:33:41.816Z,19.40
2022-08-27T23:36:09.173Z,19.40
2022-08-27T23:38:35.444Z,19.50
2022-08-27T23:41:01.810Z,19.50
2022-08-27T23:43:28.070Z,19.50
2022-08-27T23:45:54.331Z,19.60
2022-08-27T23:48:20.665Z,19.70
2022-08-27T23:50:47.002Z,19.70
2022-08-27T23:53:14.038Z,19.80
2022-08-27T23:55:40.444Z,19.80
2022-08-27T23:58:07.294Z,19.70
